首页
METAR-TAF:

METAR-TAF

机场 :

Florești, 摩尔多瓦

纬度: 47-51-45N, 经度: 028-12-45E, 海拔: 101米

当前天气观测

该预报发布于16小时和26分钟前的10:30 UTC
风速11节,风向北转西北
温度 0°C
湿度 69%
气压 1041 hPa
能见度10公里或以上
阴天层高于2100英尺

METAR: LUBM 201030Z 34011KT 9999 OVC021 M00/M05 Q1041 R25/CLRD65

时间: 04:56 (02:56 UTC)

预报

该预报发布于18小时和36分钟前的08:20 UTC
预报有效从20日的 09点(UTC)到 20日的 18点(UTC)
风速14节,风向北转西北
能见度10公里或以上
阴天层高于1500英尺

TAF: LUBM 200820Z 2009/2018 34014KT 9999 OVC015

超过4000个机场的气象观测和天气预报(METAR&TAF报告)。

可查询的气象台以黄色和红色小点在地图上表示。

将鼠标移到小点上方,可查看气象台名称。

然后点击查看天气观测和预报。

如需切换地图:点击带黑十字的绿色按钮放大地图;点击带横线的绿色按钮缩小地图;或者点击绿色箭头查看邻近地区的地图。


METAR-TAF: